sensor_id;sensor_type;location;lat;lon;timestamp;P1;durP1;ratioP1;P2;durP2;ratioP2
20369;SDS011;10344;47.592;9.600;2023-04-29T00:00:16;1.92;;;1.70;;
20369;SDS011;10344;47.592;9.600;2023-04-29T00:02:46;2.00;;;1.90;;
20369;SDS011;10344;47.592;9.600;2023-04-29T00:05:12;2.03;;;1.65;;
20369;SDS011;10344;47.592;9.600;2023-04-29T00:07:38;2.60;;;1.80;;
20369;SDS011;10344;47.592;9.600;2023-04-29T00:10:07;1.63;;;1.52;;
20369;SDS011;10344;47.592;9.600;2023-04-29T00:12:33;1.87;;;1.67;;
20369;SDS011;10344;47.592;9.600;2023-04-29T00:15:01;1.70;;;1.60;;
20369;SDS011;10344;47.592;9.600;2023-04-29T00:17:28;2.38;;;1.60;;
20369;SDS011;10344;47.592;9.600;2023-04-29T00:19:54;1.73;;;1.60;;
20369;SDS011;10344;47.592;9.600;2023-04-29T00:22:19;1.50;;;1.40;;
20369;SDS011;10344;47.592;9.600;2023-04-29T00:24:47;1.60;;;1.50;;
20369;SDS011;10344;47.592;9.600;2023-04-29T00:27:13;1.90;;;1.80;;
20369;SDS011;10344;47.592;9.600;2023-04-29T00:29:41;1.92;;;1.50;;
20369;SDS011;10344;47.592;9.600;2023-04-29T00:32:07;1.52;;;1.42;;
20369;SDS011;10344;47.592;9.600;2023-04-29T00:34:36;1.50;;;1.40;;
20369;SDS011;10344;47.592;9.600;2023-04-29T00:37:01;2.53;;;1.53;;
20369;SDS011;10344;47.592;9.600;2023-04-29T00:39:28;1.58;;;1.48;;
20369;SDS011;10344;47.592;9.600;2023-04-29T00:41:55;1.40;;;1.30;;
20369;SDS011;10344;47.592;9.600;2023-04-29T00:44:24;2.60;;;1.45;;
20369;SDS011;10344;47.592;9.600;2023-04-29T00:46:49;1.30;;;1.20;;
20369;SDS011;10344;47.592;9.600;2023-04-29T00:49:15;1.50;;;1.40;;
20369;SDS011;10344;47.592;9.600;2023-04-29T00:51:43;2.58;;;1.30;;
20369;SDS011;10344;47.592;9.600;2023-04-29T00:54:11;1.48;;;1.20;;
20369;SDS011;10344;47.592;9.600;2023-04-29T00:56:38;1.42;;;1.27;;
20369;SDS011;10344;47.592;9.600;2023-04-29T00:59:07;1.50;;;1.20;;
20369;SDS011;10344;47.592;9.600;2023-04-29T01:01:34;1.50;;;1.40;;
20369;SDS011;10344;47.592;9.600;2023-04-29T01:04:03;0.90;;;0.90;;
20369;SDS011;10344;47.592;9.600;2023-04-29T01:06:36;1.15;;;1.10;;
20369;SDS011;10344;47.592;9.600;2023-04-29T01:11:54;1.00;;;0.90;;
20369;SDS011;10344;47.592;9.600;2023-04-29T01:14:42;1.10;;;1.00;;
20369;SDS011;10344;47.592;9.600;2023-04-29T01:17:14;1.20;;;1.10;;
20369;SDS011;10344;47.592;9.600;2023-04-29T01:19:48;1.10;;;1.10;;
20369;SDS011;10344;47.592;9.600;2023-04-29T01:22:21;1.40;;;1.30;;
20369;SDS011;10344;47.592;9.600;2023-04-29T01:24:47;1.20;;;1.10;;
20369;SDS011;10344;47.592;9.600;2023-04-29T01:27:18;1.27;;;1.17;;
20369;SDS011;10344;47.592;9.600;2023-04-29T01:41:15;1.05;;;0.95;;
20369;SDS011;10344;47.592;9.600;2023-04-29T01:43:51;1.30;;;1.20;;
20369;SDS011;10344;47.592;9.600;2023-04-29T01:46:17;1.90;;;1.17;;
20369;SDS011;10344;47.592;9.600;2023-04-29T01:48:43;1.30;;;1.20;;
20369;SDS011;10344;47.592;9.600;2023-04-29T01:51:10;1.30;;;1.10;;
20369;SDS011;10344;47.592;9.600;2023-04-29T01:53:38;1.15;;;1.10;;
20369;SDS011;10344;47.592;9.600;2023-04-29T01:56:09;1.30;;;1.17;;
20369;SDS011;10344;47.592;9.600;2023-04-29T01:58:39;1.38;;;1.27;;
20369;SDS011;10344;47.592;9.600;2023-04-29T02:01:05;1.38;;;1.17;;
20369;SDS011;10344;47.592;9.600;2023-04-29T02:03:34;1.40;;;1.30;;
20369;SDS011;10344;47.592;9.600;2023-04-29T02:06:00;1.43;;;1.33;;
20369;SDS011;10344;47.592;9.600;2023-04-29T02:08:26;1.50;;;1.40;;
20369;SDS011;10344;47.592;9.600;2023-04-29T02:10:55;1.50;;;1.40;;
20369;SDS011;10344;47.592;9.600;2023-04-29T02:13:24;1.70;;;1.13;;
20369;SDS011;10344;47.592;9.600;2023-04-29T02:15:53;1.45;;;1.35;;
20369;SDS011;10344;47.592;9.600;2023-04-29T02:18:18;1.30;;;1.20;;
20369;SDS011;10344;47.592;9.600;2023-04-29T02:20:44;2.17;;;1.20;;
20369;SDS011;10344;47.592;9.600;2023-04-29T02:23:10;2.03;;;1.40;;
20369;SDS011;10344;47.592;9.600;2023-04-29T02:25:35;1.35;;;1.20;;
20369;SDS011;10344;47.592;9.600;2023-04-29T02:28:03;2.00;;;1.60;;
20369;SDS011;10344;47.592;9.600;2023-04-29T02:30:32;1.50;;;1.40;;
20369;SDS011;10344;47.592;9.600;2023-04-29T02:33:00;1.80;;;1.33;;
20369;SDS011;10344;47.592;9.600;2023-04-29T02:35:25;1.60;;;1.50;;
20369;SDS011;10344;47.592;9.600;2023-04-29T02:37:51;2.27;;;1.57;;
20369;SDS011;10344;47.592;9.600;2023-04-29T02:40:17;2.30;;;1.70;;
20369;SDS011;10344;47.592;9.600;2023-04-29T02:42:45;2.20;;;1.98;;
20369;SDS011;10344;47.592;9.600;2023-04-29T02:45:10;1.80;;;1.70;;
20369;SDS011;10344;47.592;9.600;2023-04-29T02:47:36;2.47;;;2.00;;
20369;SDS011;10344;47.592;9.600;2023-04-29T02:50:04;2.83;;;2.53;;
20369;SDS011;10344;47.592;9.600;2023-04-29T02:52:33;2.47;;;2.27;;
20369;SDS011;10344;47.592;9.600;2023-04-29T02:54:58;3.55;;;2.28;;
20369;SDS011;10344;47.592;9.600;2023-04-29T02:57:24;2.75;;;2.40;;
20369;SDS011;10344;47.592;9.600;2023-04-29T02:59:53;2.72;;;2.45;;
20369;SDS011;10344;47.592;9.600;2023-04-29T03:02:19;3.00;;;2.60;;
20369;SDS011;10344;47.592;9.600;2023-04-29T03:04:49;3.28;;;2.70;;
20369;SDS011;10344;47.592;9.600;2023-04-29T03:07:14;3.05;;;2.63;;
20369;SDS011;10344;47.592;9.600;2023-04-29T03:09:41;3.28;;;2.50;;
20369;SDS011;10344;47.592;9.600;2023-04-29T03:12:09;3.15;;;2.85;;
20369;SDS011;10344;47.592;9.600;2023-04-29T03:14:35;2.60;;;2.40;;
20369;SDS011;10344;47.592;9.600;2023-04-29T03:17:01;3.88;;;2.90;;
20369;SDS011;10344;47.592;9.600;2023-04-29T03:19:26;2.58;;;2.15;;
20369;SDS011;10344;47.592;9.600;2023-04-29T03:21:52;2.80;;;2.40;;
20369;SDS011;10344;47.592;9.600;2023-04-29T03:24:17;2.90;;;2.70;;
20369;SDS011;10344;47.592;9.600;2023-04-29T03:26:43;3.22;;;2.83;;
20369;SDS011;10344;47.592;9.600;2023-04-29T03:29:11;3.65;;;2.92;;
20369;SDS011;10344;47.592;9.600;2023-04-29T03:31:37;3.10;;;2.77;;
20369;SDS011;10344;47.592;9.600;2023-04-29T03:34:03;2.80;;;2.50;;
20369;SDS011;10344;47.592;9.600;2023-04-29T03:36:28;3.53;;;3.03;;
20369;SDS011;10344;47.592;9.600;2023-04-29T03:38:54;2.80;;;2.40;;
20369;SDS011;10344;47.592;9.600;2023-04-29T03:41:19;2.77;;;2.50;;
20369;SDS011;10344;47.592;9.600;2023-04-29T03:43:47;2.53;;;2.30;;
20369;SDS011;10344;47.592;9.600;2023-04-29T03:46:13;2.95;;;2.40;;
20369;SDS011;10344;47.592;9.600;2023-04-29T03:48:41;2.30;;;2.00;;
20369;SDS011;10344;47.592;9.600;2023-04-29T03:51:07;2.28;;;2.00;;
20369;SDS011;10344;47.592;9.600;2023-04-29T03:53:35;1.98;;;1.88;;
20369;SDS011;10344;47.592;9.600;2023-04-29T03:56:01;1.98;;;1.52;;
20369;SDS011;10344;47.592;9.600;2023-04-29T03:58:31;1.95;;;1.83;;
20369;SDS011;10344;47.592;9.600;2023-04-29T04:00:57;2.13;;;1.88;;
20369;SDS011;10344;47.592;9.600;2023-04-29T04:03:23;2.17;;;1.97;;
20369;SDS011;10344;47.592;9.600;2023-04-29T04:05:49;1.70;;;1.60;;
20369;SDS011;10344;47.592;9.600;2023-04-29T04:08:15;1.90;;;1.80;;
20369;SDS011;10344;47.592;9.600;2023-04-29T04:10:43;2.35;;;1.77;;
20369;SDS011;10344;47.592;9.600;2023-04-29T04:13:11;1.50;;;1.40;;
20369;SDS011;10344;47.592;9.600;2023-04-29T04:15:37;2.03;;;1.83;;
20369;SDS011;10344;47.592;9.600;2023-04-29T04:18:03;2.35;;;1.90;;
20369;SDS011;10344;47.592;9.600;2023-04-29T04:20:29;1.80;;;1.50;;
20369;SDS011;10344;47.592;9.600;2023-04-29T04:22:57;1.60;;;1.50;;
20369;SDS011;10344;47.592;9.600;2023-04-29T04:25:23;1.60;;;1.50;;
20369;SDS011;10344;47.592;9.600;2023-04-29T04:27:52;1.50;;;1.40;;
20369;SDS011;10344;47.592;9.600;2023-04-29T04:30:18;1.50;;;1.40;;
20369;SDS011;10344;47.592;9.600;2023-04-29T04:32:44;2.70;;;1.35;;
20369;SDS011;10344;47.592;9.600;2023-04-29T04:35:10;1.80;;;1.42;;
20369;SDS011;10344;47.592;9.600;2023-04-29T04:37:41;1.92;;;1.63;;
20369;SDS011;10344;47.592;9.600;2023-04-29T04:40:14;1.48;;;1.38;;
20369;SDS011;10344;47.592;9.600;2023-04-29T04:42:42;1.70;;;1.50;;
20369;SDS011;10344;47.592;9.600;2023-04-29T04:45:10;1.07;;;1.07;;
20369;SDS011;10344;47.592;9.600;2023-04-29T04:47:36;1.50;;;1.30;;
20369;SDS011;10344;47.592;9.600;2023-04-29T04:50:06;1.20;;;1.10;;
20369;SDS011;10344;47.592;9.600;2023-04-29T04:52:32;2.13;;;1.10;;
20369;SDS011;10344;47.592;9.600;2023-04-29T04:55:01;1.38;;;1.27;;
20369;SDS011;10344;47.592;9.600;2023-04-29T04:57:31;1.23;;;1.20;;
20369;SDS011;10344;47.592;9.600;2023-04-29T04:59:56;1.13;;;1.02;;
20369;SDS011;10344;47.592;9.600;2023-04-29T05:02:22;1.90;;;1.10;;
20369;SDS011;10344;47.592;9.600;2023-04-29T05:04:50;1.00;;;1.00;;
20369;SDS011;10344;47.592;9.600;2023-04-29T05:07:18;1.50;;;1.10;;
20369;SDS011;10344;47.592;9.600;2023-04-29T05:09:46;1.58;;;1.00;;
20369;SDS011;10344;47.592;9.600;2023-04-29T05:12:14;1.38;;;1.10;;
20369;SDS011;10344;47.592;9.600;2023-04-29T05:14:39;1.77;;;1.20;;
20369;SDS011;10344;47.592;9.600;2023-04-29T05:17:05;1.30;;;1.20;;
20369;SDS011;10344;47.592;9.600;2023-04-29T05:19:35;1.20;;;1.10;;
20369;SDS011;10344;47.592;9.600;2023-04-29T05:22:01;1.40;;;1.15;;
20369;SDS011;10344;47.592;9.600;2023-04-29T05:24:27;1.20;;;1.00;;
20369;SDS011;10344;47.592;9.600;2023-04-29T05:26:53;1.50;;;1.15;;
20369;SDS011;10344;47.592;9.600;2023-04-29T05:29:19;1.10;;;1.00;;
20369;SDS011;10344;47.592;9.600;2023-04-29T05:31:44;1.23;;;0.90;;
20369;SDS011;10344;47.592;9.600;2023-04-29T05:34:12;1.25;;;1.15;;
20369;SDS011;10344;47.592;9.600;2023-04-29T05:36:40;1.40;;;1.08;;
20369;SDS011;10344;47.592;9.600;2023-04-29T05:39:08;1.13;;;0.95;;
20369;SDS011;10344;47.592;9.600;2023-04-29T05:41:34;2.10;;;1.20;;
20369;SDS011;10344;47.592;9.600;2023-04-29T05:44:02;1.17;;;0.90;;
20369;SDS011;10344;47.592;9.600;2023-04-29T05:46:27;0.93;;;0.93;;
20369;SDS011;10344;47.592;9.600;2023-04-29T05:48:53;1.40;;;1.30;;
20369;SDS011;10344;47.592;9.600;2023-04-29T05:51:23;1.25;;;1.13;;
20369;SDS011;10344;47.592;9.600;2023-04-29T05:53:49;1.00;;;0.90;;
20369;SDS011;10344;47.592;9.600;2023-04-29T05:56:15;1.52;;;1.00;;
20369;SDS011;10344;47.592;9.600;2023-04-29T05:58:42;1.35;;;1.10;;
20369;SDS011;10344;47.592;9.600;2023-04-29T06:01:11;1.70;;;1.10;;
20369;SDS011;10344;47.592;9.600;2023-04-29T06:03:38;2.20;;;1.08;;
20369;SDS011;10344;47.592;9.600;2023-04-29T06:06:05;0.90;;;0.90;;
20369;SDS011;10344;47.592;9.600;2023-04-29T06:08:31;1.50;;;1.07;;
20369;SDS011;10344;47.592;9.600;2023-04-29T06:10:57;0.90;;;0.90;;
20369;SDS011;10344;47.592;9.600;2023-04-29T06:13:26;1.48;;;0.90;;
20369;SDS011;10344;47.592;9.600;2023-04-29T06:15:54;1.17;;;1.08;;
20369;SDS011;10344;47.592;9.600;2023-04-29T06:18:22;1.15;;;1.05;;
20369;SDS011;10344;47.592;9.600;2023-04-29T06:20:48;1.90;;;1.00;;
20369;SDS011;10344;47.592;9.600;2023-04-29T06:23:16;0.98;;;0.90;;
20369;SDS011;10344;47.592;9.600;2023-04-29T06:25:41;1.27;;;1.17;;
20369;SDS011;10344;47.592;9.600;2023-04-29T06:28:07;1.00;;;0.90;;
20369;SDS011;10344;47.592;9.600;2023-04-29T06:30:33;1.20;;;1.10;;
20369;SDS011;10344;47.592;9.600;2023-04-29T06:33:01;1.48;;;1.10;;
20369;SDS011;10344;47.592;9.600;2023-04-29T06:35:28;1.25;;;1.00;;
20369;SDS011;10344;47.592;9.600;2023-04-29T06:37:54;0.80;;;0.80;;
20369;SDS011;10344;47.592;9.600;2023-04-29T06:40:20;1.48;;;0.90;;
20369;SDS011;10344;47.592;9.600;2023-04-29T06:42:46;1.27;;;1.10;;
20369;SDS011;10344;47.592;9.600;2023-04-29T06:45:11;0.93;;;0.90;;
20369;SDS011;10344;47.592;9.600;2023-04-29T06:47:37;1.03;;;1.00;;
20369;SDS011;10344;47.592;9.600;2023-04-29T06:50:05;1.20;;;1.15;;
20369;SDS011;10344;47.592;9.600;2023-04-29T06:52:33;0.85;;;0.80;;
20369;SDS011;10344;47.592;9.600;2023-04-29T06:54:59;1.00;;;0.90;;
20369;SDS011;10344;47.592;9.600;2023-04-29T06:57:25;1.33;;;0.90;;
20369;SDS011;10344;47.592;9.600;2023-04-29T06:59:55;1.00;;;0.90;;
20369;SDS011;10344;47.592;9.600;2023-04-29T07:02:23;0.80;;;0.80;;
20369;SDS011;10344;47.592;9.600;2023-04-29T07:04:50;0.97;;;0.70;;
20369;SDS011;10344;47.592;9.600;2023-04-29T07:07:16;1.10;;;0.70;;
20369;SDS011;10344;47.592;9.600;2023-04-29T07:09:42;0.67;;;0.67;;
20369;SDS011;10344;47.592;9.600;2023-04-29T07:12:10;0.73;;;0.70;;
20369;SDS011;10344;47.592;9.600;2023-04-29T07:14:38;0.75;;;0.73;;
20369;SDS011;10344;47.592;9.600;2023-04-29T07:17:07;0.68;;;0.50;;
20369;SDS011;10344;47.592;9.600;2023-04-29T07:19:35;1.30;;;0.60;;
20369;SDS011;10344;47.592;9.600;2023-04-29T07:22:02;0.43;;;0.43;;
20369;SDS011;10344;47.592;9.600;2023-04-29T07:24:30;0.70;;;0.70;;
20369;SDS011;10344;47.592;9.600;2023-04-29T07:26:58;1.33;;;0.80;;
20369;SDS011;10344;47.592;9.600;2023-04-29T07:29:24;0.75;;;0.70;;
20369;SDS011;10344;47.592;9.600;2023-04-29T07:31:52;1.60;;;0.80;;
20369;SDS011;10344;47.592;9.600;2023-04-29T07:34:17;0.80;;;0.80;;
20369;SDS011;10344;47.592;9.600;2023-04-29T07:36:43;1.57;;;0.80;;
20369;SDS011;10344;47.592;9.600;2023-04-29T07:39:09;1.73;;;0.82;;
20369;SDS011;10344;47.592;9.600;2023-04-29T07:41:36;0.60;;;0.60;;
20369;SDS011;10344;47.592;9.600;2023-04-29T07:44:01;0.90;;;0.60;;
20369;SDS011;10344;47.592;9.600;2023-04-29T07:46:27;1.52;;;0.75;;
20369;SDS011;10344;47.592;9.600;2023-04-29T07:48:53;1.08;;;0.73;;
20369;SDS011;10344;47.592;9.600;2023-04-29T07:51:18;0.90;;;0.50;;
20369;SDS011;10344;47.592;9.600;2023-04-29T07:53:44;0.60;;;0.50;;
20369;SDS011;10344;47.592;9.600;2023-04-29T07:56:10;1.27;;;0.60;;
20369;SDS011;10344;47.592;9.600;2023-04-29T07:58:35;1.15;;;0.60;;
20369;SDS011;10344;47.592;9.600;2023-04-29T08:01:05;0.60;;;0.60;;
20369;SDS011;10344;47.592;9.600;2023-04-29T08:03:34;0.77;;;0.63;;
20369;SDS011;10344;47.592;9.600;2023-04-29T08:06:01;0.60;;;0.60;;
20369;SDS011;10344;47.592;9.600;2023-04-29T08:08:27;0.55;;;0.55;;
20369;SDS011;10344;47.592;9.600;2023-04-29T08:10:54;0.50;;;0.50;;
20369;SDS011;10344;47.592;9.600;2023-04-29T08:13:22;0.50;;;0.50;;
20369;SDS011;10344;47.592;9.600;2023-04-29T08:15:50;0.80;;;0.60;;
20369;SDS011;10344;47.592;9.600;2023-04-29T08:18:18;0.60;;;0.53;;
20369;SDS011;10344;47.592;9.600;2023-04-29T08:20:45;0.63;;;0.63;;
20369;SDS011;10344;47.592;9.600;2023-04-29T08:23:13;1.00;;;0.57;;
20369;SDS011;10344;47.592;9.600;2023-04-29T08:25:42;0.80;;;0.60;;
20369;SDS011;10344;47.592;9.600;2023-04-29T08:28:08;1.45;;;0.73;;
20369;SDS011;10344;47.592;9.600;2023-04-29T08:30:38;0.90;;;0.60;;
20369;SDS011;10344;47.592;9.600;2023-04-29T08:33:09;0.68;;;0.68;;
20369;SDS011;10344;47.592;9.600;2023-04-29T08:35:36;0.60;;;0.60;;
20369;SDS011;10344;47.592;9.600;2023-04-29T08:38:03;1.90;;;0.80;;
20369;SDS011;10344;47.592;9.600;2023-04-29T08:40:32;0.50;;;0.50;;
20369;SDS011;10344;47.592;9.600;2023-04-29T08:42:59;0.90;;;0.70;;
20369;SDS011;10344;47.592;9.600;2023-04-29T08:45:27;0.70;;;0.68;;
20369;SDS011;10344;47.592;9.600;2023-04-29T08:47:56;0.90;;;0.68;;
20369;SDS011;10344;47.592;9.600;2023-04-29T08:50:27;1.13;;;0.75;;
20369;SDS011;10344;47.592;9.600;2023-04-29T08:52:53;0.98;;;0.70;;
20369;SDS011;10344;47.592;9.600;2023-04-29T08:55:20;0.82;;;0.75;;
20369;SDS011;10344;47.592;9.600;2023-04-29T08:57:45;1.35;;;0.90;;
20369;SDS011;10344;47.592;9.600;2023-04-29T09:00:14;1.23;;;0.70;;
20369;SDS011;10344;47.592;9.600;2023-04-29T09:02:45;1.10;;;1.00;;
20369;SDS011;10344;47.592;9.600;2023-04-29T09:05:15;1.13;;;0.80;;
20369;SDS011;10344;47.592;9.600;2023-04-29T09:07:40;0.90;;;0.80;;
20369;SDS011;10344;47.592;9.600;2023-04-29T09:10:10;0.85;;;0.85;;
20369;SDS011;10344;47.592;9.600;2023-04-29T09:12:38;1.88;;;1.00;;
20369;SDS011;10344;47.592;9.600;2023-04-29T09:15:07;0.80;;;0.77;;
20369;SDS011;10344;47.592;9.600;2023-04-29T09:22:46;1.30;;;1.00;;
20369;SDS011;10344;47.592;9.600;2023-04-29T09:25:14;1.05;;;0.95;;
20369;SDS011;10344;47.592;9.600;2023-04-29T09:27:40;1.30;;;0.83;;
20369;SDS011;10344;47.592;9.600;2023-04-29T09:30:06;0.93;;;0.80;;
20369;SDS011;10344;47.592;9.600;2023-04-29T09:32:33;1.35;;;0.90;;
20369;SDS011;10344;47.592;9.600;2023-04-29T09:35:18;0.80;;;0.80;;
20369;SDS011;10344;47.592;9.600;2023-04-29T09:37:47;1.00;;;0.90;;
20369;SDS011;10344;47.592;9.600;2023-04-29T09:40:36;1.85;;;0.60;;
20369;SDS011;10344;47.592;9.600;2023-04-29T09:43:01;1.20;;;0.87;;
20369;SDS011;10344;47.592;9.600;2023-04-29T09:45:37;1.20;;;1.10;;
20369;SDS011;10344;47.592;9.600;2023-04-29T09:48:06;2.15;;;1.27;;
20369;SDS011;10344;47.592;9.600;2023-04-29T09:50:34;1.50;;;1.30;;
20369;SDS011;10344;47.592;9.600;2023-04-29T09:53:03;1.50;;;1.33;;
20369;SDS011;10344;47.592;9.600;2023-04-29T09:55:31;1.58;;;1.48;;
20369;SDS011;10344;47.592;9.600;2023-04-29T09:58:02;1.70;;;1.60;;
20369;SDS011;10344;47.592;9.600;2023-04-29T10:00:30;1.40;;;1.25;;
20369;SDS011;10344;47.592;9.600;2023-04-29T10:02:58;2.10;;;1.50;;
20369;SDS011;10344;47.592;9.600;2023-04-29T10:05:26;2.10;;;1.90;;
20369;SDS011;10344;47.592;9.600;2023-04-29T10:07:58;2.42;;;2.22;;
20369;SDS011;10344;47.592;9.600;2023-04-29T10:10:25;2.15;;;1.95;;
20369;SDS011;10344;47.592;9.600;2023-04-29T10:12:53;1.60;;;1.50;;
20369;SDS011;10344;47.592;9.600;2023-04-29T10:15:32;2.45;;;1.50;;
20369;SDS011;10344;47.592;9.600;2023-04-29T10:18:13;1.20;;;1.10;;
20369;SDS011;10344;47.592;9.600;2023-04-29T10:20:47;2.83;;;1.50;;
20369;SDS011;10344;47.592;9.600;2023-04-29T10:23:13;2.00;;;1.50;;
20369;SDS011;10344;47.592;9.600;2023-04-29T10:25:43;2.05;;;1.20;;
20369;SDS011;10344;47.592;9.600;2023-04-29T10:28:11;0.70;;;0.60;;
20369;SDS011;10344;47.592;9.600;2023-04-29T10:30:43;1.00;;;0.90;;
20369;SDS011;10344;47.592;9.600;2023-04-29T10:33:10;1.88;;;1.77;;
20369;SDS011;10344;47.592;9.600;2023-04-29T10:35:36;2.33;;;2.13;;
20369;SDS011;10344;47.592;9.600;2023-04-29T10:41:14;1.58;;;1.20;;
20369;SDS011;10344;47.592;9.600;2023-04-29T10:43:51;1.15;;;1.02;;
20369;SDS011;10344;47.592;9.600;2023-04-29T10:46:18;2.63;;;1.35;;
20369;SDS011;10344;47.592;9.600;2023-04-29T10:48:47;2.13;;;1.60;;
20369;SDS011;10344;47.592;9.600;2023-04-29T10:51:27;1.92;;;1.60;;
20369;SDS011;10344;47.592;9.600;2023-04-29T10:54:11;1.88;;;1.77;;
20369;SDS011;10344;47.592;9.600;2023-04-29T10:59:52;2.22;;;1.50;;
20369;SDS011;10344;47.592;9.600;2023-04-29T11:01:53;1.80;;;1.70;;
20369;SDS011;10344;47.592;9.600;2023-04-29T11:04:19;2.13;;;1.60;;
20369;SDS011;10344;47.592;9.600;2023-04-29T11:06:53;2.38;;;1.75;;
20369;SDS011;10344;47.592;9.600;2023-04-29T11:17:19;2.67;;;1.67;;
20369;SDS011;10344;47.592;9.600;2023-04-29T11:19:51;1.50;;;1.38;;
20369;SDS011;10344;47.592;9.600;2023-04-29T11:22:26;1.55;;;1.25;;
20369;SDS011;10344;47.592;9.600;2023-04-29T11:24:58;1.40;;;1.30;;
20369;SDS011;10344;47.592;9.600;2023-04-29T11:27:35;1.70;;;1.58;;
20369;SDS011;10344;47.592;9.600;2023-04-29T11:30:05;1.30;;;1.20;;
20369;SDS011;10344;47.592;9.600;2023-04-29T11:32:34;1.57;;;1.30;;
20369;SDS011;10344;47.592;9.600;2023-04-29T11:35:08;2.00;;;1.30;;
20369;SDS011;10344;47.592;9.600;2023-04-29T11:37:41;1.70;;;1.20;;
20369;SDS011;10344;47.592;9.600;2023-04-29T11:40:09;1.70;;;1.30;;
20369;SDS011;10344;47.592;9.600;2023-04-29T11:42:39;1.40;;;1.10;;
20369;SDS011;10344;47.592;9.600;2023-04-29T11:45:12;2.10;;;1.20;;
20369;SDS011;10344;47.592;9.600;2023-04-29T11:47:41;1.55;;;1.23;;
20369;SDS011;10344;47.592;9.600;2023-04-29T11:50:10;1.45;;;1.13;;
20369;SDS011;10344;47.592;9.600;2023-04-29T11:52:38;1.15;;;1.05;;
20369;SDS011;10344;47.592;9.600;2023-04-29T11:55:09;1.20;;;1.10;;
20369;SDS011;10344;47.592;9.600;2023-04-29T11:57:36;3.38;;;1.58;;
20369;SDS011;10344;47.592;9.600;2023-04-29T12:00:12;2.78;;;1.50;;
20369;SDS011;10344;47.592;9.600;2023-04-29T12:02:42;1.67;;;1.35;;
20369;SDS011;10344;47.592;9.600;2023-04-29T12:05:10;2.95;;;1.20;;
20369;SDS011;10344;47.592;9.600;2023-04-29T12:07:37;1.50;;;1.10;;
20369;SDS011;10344;47.592;9.600;2023-04-29T12:10:09;1.85;;;1.00;;
20369;SDS011;10344;47.592;9.600;2023-04-29T12:12:36;1.10;;;0.82;;
20369;SDS011;10344;47.592;9.600;2023-04-29T12:15:07;0.80;;;0.75;;
20369;SDS011;10344;47.592;9.600;2023-04-29T12:17:34;0.70;;;0.70;;
20369;SDS011;10344;47.592;9.600;2023-04-29T12:20:00;1.33;;;0.80;;
20369;SDS011;10344;47.592;9.600;2023-04-29T12:22:30;1.10;;;0.80;;
20369;SDS011;10344;47.592;9.600;2023-04-29T12:24:56;1.15;;;0.77;;
20369;SDS011;10344;47.592;9.600;2023-04-29T12:27:21;1.30;;;0.70;;
20369;SDS011;10344;47.592;9.600;2023-04-29T12:29:48;0.67;;;0.67;;
20369;SDS011;10344;47.592;9.600;2023-04-29T12:32:16;0.80;;;0.70;;
20369;SDS011;10344;47.592;9.600;2023-04-29T12:34:46;1.35;;;0.70;;
20369;SDS011;10344;47.592;9.600;2023-04-29T12:37:14;1.13;;;0.70;;
20369;SDS011;10344;47.592;9.600;2023-04-29T12:39:40;0.65;;;0.52;;
20369;SDS011;10344;47.592;9.600;2023-04-29T12:42:15;0.70;;;0.60;;
20369;SDS011;10344;47.592;9.600;2023-04-29T12:44:46;1.20;;;0.52;;
20369;SDS011;10344;47.592;9.600;2023-04-29T12:47:12;0.85;;;0.80;;
20369;SDS011;10344;47.592;9.600;2023-04-29T12:49:42;2.27;;;1.17;;
20369;SDS011;10344;47.592;9.600;2023-04-29T12:52:09;0.60;;;0.60;;
20369;SDS011;10344;47.592;9.600;2023-04-29T12:54:35;1.40;;;0.73;;
20369;SDS011;10344;47.592;9.600;2023-04-29T12:57:08;0.68;;;0.60;;
20369;SDS011;10344;47.592;9.600;2023-04-29T12:59:38;1.05;;;0.70;;
20369;SDS011;10344;47.592;9.600;2023-04-29T13:02:06;0.80;;;0.70;;
20369;SDS011;10344;47.592;9.600;2023-04-29T13:04:31;0.65;;;0.60;;
20369;SDS011;10344;47.592;9.600;2023-04-29T13:06:57;1.20;;;0.60;;
20369;SDS011;10344;47.592;9.600;2023-04-29T13:09:26;1.67;;;0.60;;
20369;SDS011;10344;47.592;9.600;2023-04-29T13:11:57;0.73;;;0.40;;
20369;SDS011;10344;47.592;9.600;2023-04-29T13:14:23;0.63;;;0.50;;
20369;SDS011;10344;47.592;9.600;2023-04-29T13:16:51;0.82;;;0.60;;
20369;SDS011;10344;47.592;9.600;2023-04-29T13:19:16;0.80;;;0.55;;
20369;SDS011;10344;47.592;9.600;2023-04-29T13:21:42;1.00;;;0.60;;
20369;SDS011;10344;47.592;9.600;2023-04-29T13:24:07;0.50;;;0.50;;
20369;SDS011;10344;47.592;9.600;2023-04-29T13:26:38;0.68;;;0.50;;
20369;SDS011;10344;47.592;9.600;2023-04-29T13:29:03;0.40;;;0.40;;
20369;SDS011;10344;47.592;9.600;2023-04-29T13:31:29;0.80;;;0.77;;
20369;SDS011;10344;47.592;9.600;2023-04-29T13:33:54;0.65;;;0.50;;
20369;SDS011;10344;47.592;9.600;2023-04-29T13:36:20;1.27;;;0.60;;
20369;SDS011;10344;47.592;9.600;2023-04-29T13:38:48;0.80;;;0.50;;
20369;SDS011;10344;47.592;9.600;2023-04-29T13:41:16;2.10;;;0.70;;
20369;SDS011;10344;47.592;9.600;2023-04-29T13:43:41;0.80;;;0.68;;
20369;SDS011;10344;47.592;9.600;2023-04-29T13:46:09;1.10;;;0.60;;
20369;SDS011;10344;47.592;9.600;2023-04-29T13:48:35;1.00;;;0.60;;
20369;SDS011;10344;47.592;9.600;2023-04-29T13:51:01;1.02;;;0.57;;
20369;SDS011;10344;47.592;9.600;2023-04-29T13:53:26;0.80;;;0.53;;
20369;SDS011;10344;47.592;9.600;2023-04-29T13:55:52;0.60;;;0.60;;
20369;SDS011;10344;47.592;9.600;2023-04-29T13:58:18;1.30;;;0.52;;
20369;SDS011;10344;47.592;9.600;2023-04-29T14:00:45;0.50;;;0.50;;
20369;SDS011;10344;47.592;9.600;2023-04-29T14:03:16;0.82;;;0.50;;
20369;SDS011;10344;47.592;9.600;2023-04-29T14:05:42;0.90;;;0.52;;
20369;SDS011;10344;47.592;9.600;2023-04-29T14:08:08;0.70;;;0.70;;
20369;SDS011;10344;47.592;9.600;2023-04-29T14:10:34;1.75;;;0.70;;
20369;SDS011;10344;47.592;9.600;2023-04-29T14:13:02;1.40;;;0.70;;
20369;SDS011;10344;47.592;9.600;2023-04-29T14:15:31;0.98;;;0.75;;
20369;SDS011;10344;47.592;9.600;2023-04-29T14:17:56;1.88;;;0.80;;
20369;SDS011;10344;47.592;9.600;2023-04-29T14:20:26;1.20;;;0.60;;
20369;SDS011;10344;47.592;9.600;2023-04-29T14:22:52;2.20;;;0.80;;
20369;SDS011;10344;47.592;9.600;2023-04-29T14:25:18;2.10;;;0.83;;
20369;SDS011;10344;47.592;9.600;2023-04-29T14:27:46;0.63;;;0.63;;
20369;SDS011;10344;47.592;9.600;2023-04-29T14:30:13;1.50;;;0.90;;
20369;SDS011;10344;47.592;9.600;2023-04-29T14:32:45;1.05;;;0.80;;
20369;SDS011;10344;47.592;9.600;2023-04-29T14:35:11;0.70;;;0.70;;
20369;SDS011;10344;47.592;9.600;2023-04-29T14:37:40;1.45;;;0.98;;
20369;SDS011;10344;47.592;9.600;2023-04-29T14:40:08;2.80;;;1.70;;
20369;SDS011;10344;47.592;9.600;2023-04-29T14:42:36;1.30;;;1.20;;
20369;SDS011;10344;47.592;9.600;2023-04-29T14:45:04;2.75;;;1.73;;
20369;SDS011;10344;47.592;9.600;2023-04-29T14:47:30;4.93;;;3.80;;
20369;SDS011;10344;47.592;9.600;2023-04-29T14:49:58;2.33;;;1.00;;
20369;SDS011;10344;47.592;9.600;2023-04-29T14:52:26;2.05;;;1.10;;
20369;SDS011;10344;47.592;9.600;2023-04-29T14:54:54;1.73;;;0.70;;
20369;SDS011;10344;47.592;9.600;2023-04-29T14:57:20;1.63;;;1.10;;
20369;SDS011;10344;47.592;9.600;2023-04-29T14:59:48;2.47;;;1.00;;
20369;SDS011;10344;47.592;9.600;2023-04-29T15:02:14;1.30;;;1.00;;
20369;SDS011;10344;47.592;9.600;2023-04-29T15:04:41;0.67;;;0.60;;
20369;SDS011;10344;47.592;9.600;2023-04-29T15:07:11;1.88;;;1.00;;
20369;SDS011;10344;47.592;9.600;2023-04-29T15:09:39;1.50;;;0.80;;
20369;SDS011;10344;47.592;9.600;2023-04-29T15:12:06;1.38;;;0.82;;
20369;SDS011;10344;47.592;9.600;2023-04-29T15:14:34;0.93;;;0.70;;
20369;SDS011;10344;47.592;9.600;2023-04-29T15:17:00;1.27;;;1.02;;
20369;SDS011;10344;47.592;9.600;2023-04-29T15:19:30;1.50;;;0.80;;
20369;SDS011;10344;47.592;9.600;2023-04-29T15:21:56;1.93;;;0.90;;
20369;SDS011;10344;47.592;9.600;2023-04-29T15:24:21;1.38;;;0.80;;